This is the latest recevied weather packets stored in our database for station/object KB1WCR. If no packets are shown the sender has not sent any weather packets the latest 10 day(s).
| Time | Temp. | Humidity | Pressure | Rain* | Wind** | Luminosity | Snow |
|---|---|---|---|---|---|---|---|
| 1777998179 | 25° C | 49% | 1006.5 hPa | 0 mm | - | 755 W/m² | - |
| 1777997876 | 25° C | 50% | 1006.8 hPa | 0 mm | - | 754 W/m² | - |
| 1777997573 | 24.44° C | 50% | 1006.8 hPa | 0 mm | - | 742 W/m² | - |
| 1777997271 | 24.44° C | 51% | 1007 hPa | 0 mm | - | 757 W/m² | - |
| 1777996968 | 23.89° C | 53% | 1007.2 hPa | 0 mm | - | 742 W/m² | - |
| 1777996665 | 23.89° C | 52% | 1007.2 hPa | 0 mm | - | 656 W/m² | - |
| 1777996361 | 23.89° C | 51% | 1007.3 hPa | 0 mm | - | 724 W/m² | - |
| 1777996057 | 23.33° C | 53% | 1007.1 hPa | 0 mm | - | 708 W/m² | - |
| 1777995754 | 23.89° C | 50% | 1007.3 hPa | 0 mm | - | 703 W/m² | - |
| 1777995450 | 23.89° C | 53% | 1007.4 hPa | 0 mm | - | 725 W/m² | - |
| 1777995147 | 23.33° C | 54% | 1007.6 hPa | 0 mm | - | 707 W/m² | - |
| 1777994844 | 23.33° C | 50% | 1007.5 hPa | 0 mm | - | 707 W/m² | - |
| 1777994541 | 23.33° C | 51% | 1007.6 hPa | 0 mm | - | 723 W/m² | - |
| 1777994235 | 22.78° C | 54% | 1007.6 hPa | 0 mm | - | 715 W/m² | - |
| 1777993933 | 23.33° C | 52% | 1008 hPa | 0 mm | - | 710 W/m² | - |
| 1777993629 | 22.78° C | 53% | 1007.9 hPa | 0 mm | - | 705 W/m² | - |
| 1777993327 | 22.22° C | 52% | 1007.9 hPa | 0 mm | - | 719 W/m² | - |
| 1777993026 | 22.22° C | 52% | 1007.9 hPa | 0 mm | - | 711 W/m² | - |
| 1777992726 | 22.22° C | 54% | 1007.8 hPa | 0 mm | - | 717 W/m² | - |
| 1777992423 | 21.67° C | 53% | 1007.8 hPa | 0 mm | - | 789 W/m² | - |
| 1777992121 | 20.56° C | 56% | 1007.9 hPa | 0 mm | - | 782 W/m² | - |
| 1777991817 | 20.56° C | 55% | 1008 hPa | 0 mm | - | 328 W/m² | - |
| 1777991515 | 20.56° C | 55% | 1007.9 hPa | 0 mm | - | 269 W/m² | - |
| 1777991211 | 20° C | 57% | 1007.7 hPa | 0 mm | - | 245 W/m² | - |
| 1777990909 | 20° C | 59% | 1007.8 hPa | 0 mm | - | 227 W/m² | - |
* Rain latest hour (hover to see other rain measurements)
** Current wind speed in m/s (hover to see current wind gust speed)